sensor_id;sensor_type;location;lat;lon;timestamp;P1;durP1;ratioP1;P2;durP2;ratioP2
75649;SDS011;64245;51.282;22.494;2023-02-27T00:00:22;4.78;;;1.80;;
75649;SDS011;64245;51.282;22.494;2023-02-27T00:03:08;3.92;;;1.67;;
75649;SDS011;64245;51.282;22.494;2023-02-27T00:05:34;4.80;;;1.85;;
75649;SDS011;64245;51.282;22.494;2023-02-27T00:08:00;4.30;;;1.55;;
75649;SDS011;64245;51.282;22.494;2023-02-27T00:10:25;3.45;;;1.60;;
75649;SDS011;64245;51.282;22.494;2023-02-27T00:12:51;5.43;;;1.83;;
75649;SDS011;64245;51.282;22.494;2023-02-27T00:15:17;5.80;;;2.05;;
75649;SDS011;64245;51.282;22.494;2023-02-27T00:17:44;2.20;;;1.30;;
75649;SDS011;64245;51.282;22.494;2023-02-27T00:20:11;5.68;;;1.40;;
75649;SDS011;64245;51.282;22.494;2023-02-27T00:25:05;3.30;;;1.40;;
75649;SDS011;64245;51.282;22.494;2023-02-27T00:27:32;5.22;;;1.50;;
75649;SDS011;64245;51.282;22.494;2023-02-27T00:29:59;5.03;;;1.60;;
75649;SDS011;64245;51.282;22.494;2023-02-27T00:32:25;3.10;;;1.60;;
75649;SDS011;64245;51.282;22.494;2023-02-27T00:34:50;3.60;;;1.60;;
75649;SDS011;64245;51.282;22.494;2023-02-27T00:37:16;2.60;;;1.88;;
75649;SDS011;64245;51.282;22.494;2023-02-27T00:39:42;4.90;;;1.88;;
75649;SDS011;64245;51.282;22.494;2023-02-27T00:42:07;3.60;;;1.50;;
75649;SDS011;64245;51.282;22.494;2023-02-27T00:44:33;4.05;;;1.50;;
75649;SDS011;64245;51.282;22.494;2023-02-27T00:46:59;4.47;;;1.48;;
75649;SDS011;64245;51.282;22.494;2023-02-27T00:49:25;4.35;;;1.80;;
75649;SDS011;64245;51.282;22.494;2023-02-27T00:51:51;2.92;;;1.60;;
75649;SDS011;64245;51.282;22.494;2023-02-27T00:54:17;5.47;;;1.67;;
75649;SDS011;64245;51.282;22.494;2023-02-27T00:56:43;4.82;;;1.35;;
75649;SDS011;64245;51.282;22.494;2023-02-27T00:59:09;2.50;;;1.15;;
75649;SDS011;64245;51.282;22.494;2023-02-27T01:01:34;4.07;;;1.27;;
75649;SDS011;64245;51.282;22.494;2023-02-27T01:04:00;3.72;;;1.17;;
75649;SDS011;64245;51.282;22.494;2023-02-27T01:06:26;2.08;;;0.77;;
75649;SDS011;64245;51.282;22.494;2023-02-27T01:08:51;3.00;;;1.00;;
75649;SDS011;64245;51.282;22.494;2023-02-27T01:11:17;2.28;;;0.90;;
75649;SDS011;64245;51.282;22.494;2023-02-27T01:13:43;1.88;;;0.77;;
75649;SDS011;64245;51.282;22.494;2023-02-27T01:16:11;3.05;;;0.98;;
75649;SDS011;64245;51.282;22.494;2023-02-27T01:18:37;2.47;;;1.13;;
75649;SDS011;64245;51.282;22.494;2023-02-27T01:21:03;3.30;;;1.45;;
75649;SDS011;64245;51.282;22.494;2023-02-27T01:23:29;3.08;;;1.10;;
75649;SDS011;64245;51.282;22.494;2023-02-27T01:25:55;2.15;;;0.90;;
75649;SDS011;64245;51.282;22.494;2023-02-27T01:28:20;1.70;;;0.63;;
75649;SDS011;64245;51.282;22.494;2023-02-27T01:30:46;4.22;;;1.10;;
75649;SDS011;64245;51.282;22.494;2023-02-27T01:33:12;1.55;;;0.80;;
75649;SDS011;64245;51.282;22.494;2023-02-27T01:35:37;2.60;;;0.80;;
75649;SDS011;64245;51.282;22.494;2023-02-27T01:38:03;2.47;;;1.10;;
75649;SDS011;64245;51.282;22.494;2023-02-27T01:40:33;2.13;;;0.95;;
75649;SDS011;64245;51.282;22.494;2023-02-27T01:43:00;1.92;;;0.75;;
75649;SDS011;64245;51.282;22.494;2023-02-27T01:45:27;4.82;;;1.23;;
75649;SDS011;64245;51.282;22.494;2023-02-27T01:48:19;2.47;;;0.88;;
75649;SDS011;64245;51.282;22.494;2023-02-27T01:50:52;2.80;;;1.40;;
75649;SDS011;64245;51.282;22.494;2023-02-27T01:53:38;4.28;;;1.70;;
75649;SDS011;64245;51.282;22.494;2023-02-27T01:56:27;7.25;;;1.77;;
75649;SDS011;64245;51.282;22.494;2023-02-27T01:58:58;5.97;;;1.58;;
75649;SDS011;64245;51.282;22.494;2023-02-27T02:01:28;3.97;;;1.27;;
75649;SDS011;64245;51.282;22.494;2023-02-27T02:06:55;5.50;;;1.83;;
75649;SDS011;64245;51.282;22.494;2023-02-27T02:09:24;3.30;;;1.02;;
75649;SDS011;64245;51.282;22.494;2023-02-27T02:11:51;3.88;;;1.30;;
75649;SDS011;64245;51.282;22.494;2023-02-27T02:14:18;2.70;;;1.02;;
75649;SDS011;64245;51.282;22.494;2023-02-27T02:16:51;7.88;;;1.85;;
75649;SDS011;64245;51.282;22.494;2023-02-27T02:28:05;3.78;;;1.13;;
75649;SDS011;64245;51.282;22.494;2023-02-27T02:31:05;3.63;;;1.60;;
75649;SDS011;64245;51.282;22.494;2023-02-27T02:36:43;5.78;;;2.05;;
75649;SDS011;64245;51.282;22.494;2023-02-27T02:42:03;3.75;;;1.33;;
75649;SDS011;64245;51.282;22.494;2023-02-27T02:49:58;6.22;;;1.70;;
75649;SDS011;64245;51.282;22.494;2023-02-27T02:53:07;6.60;;;1.50;;
75649;SDS011;64245;51.282;22.494;2023-02-27T02:56:03;4.15;;;1.27;;
75649;SDS011;64245;51.282;22.494;2023-02-27T02:58:36;4.45;;;1.55;;
75649;SDS011;64245;51.282;22.494;2023-02-27T03:01:15;3.08;;;1.30;;
75649;SDS011;64245;51.282;22.494;2023-02-27T03:04:14;1.88;;;1.20;;
75649;SDS011;64245;51.282;22.494;2023-02-27T03:07:10;2.03;;;1.50;;
75649;SDS011;64245;51.282;22.494;2023-02-27T03:09:49;2.03;;;0.68;;
75649;SDS011;64245;51.282;22.494;2023-02-27T03:12:20;1.40;;;0.90;;
75649;SDS011;64245;51.282;22.494;2023-02-27T03:17:28;2.13;;;1.38;;
75649;SDS011;64245;51.282;22.494;2023-02-27T03:20:18;2.28;;;1.25;;
75649;SDS011;64245;51.282;22.494;2023-02-27T03:25:16;4.45;;;1.90;;
75649;SDS011;64245;51.282;22.494;2023-02-27T03:27:44;5.93;;;1.40;;
75649;SDS011;64245;51.282;22.494;2023-02-27T03:33:10;6.90;;;2.20;;
75649;SDS011;64245;51.282;22.494;2023-02-27T03:38:50;3.33;;;1.67;;
75649;SDS011;64245;51.282;22.494;2023-02-27T03:46:41;3.25;;;1.35;;
75649;SDS011;64245;51.282;22.494;2023-02-27T03:49:07;3.25;;;1.17;;
75649;SDS011;64245;51.282;22.494;2023-02-27T03:51:33;3.38;;;1.38;;
75649;SDS011;64245;51.282;22.494;2023-02-27T03:54:13;2.55;;;1.20;;
75649;SDS011;64245;51.282;22.494;2023-02-27T03:56:40;2.78;;;1.40;;
75649;SDS011;64245;51.282;22.494;2023-02-27T03:59:09;3.72;;;1.20;;
75649;SDS011;64245;51.282;22.494;2023-02-27T04:01:34;3.47;;;1.10;;
75649;SDS011;64245;51.282;22.494;2023-02-27T04:04:06;2.47;;;1.13;;
75649;SDS011;64245;51.282;22.494;2023-02-27T04:06:35;1.75;;;1.00;;
75649;SDS011;64245;51.282;22.494;2023-02-27T04:12:23;2.85;;;1.00;;
75649;SDS011;64245;51.282;22.494;2023-02-27T04:20:50;2.17;;;0.98;;
75649;SDS011;64245;51.282;22.494;2023-02-27T04:23:25;2.65;;;1.00;;
75649;SDS011;64245;51.282;22.494;2023-02-27T04:31:57;5.70;;;1.67;;
75649;SDS011;64245;51.282;22.494;2023-02-27T04:34:40;5.35;;;1.60;;
75649;SDS011;64245;51.282;22.494;2023-02-27T04:37:26;3.00;;;1.35;;
75649;SDS011;64245;51.282;22.494;2023-02-27T04:40:00;1.90;;;0.82;;
75649;SDS011;64245;51.282;22.494;2023-02-27T04:42:34;2.42;;;1.25;;
75649;SDS011;64245;51.282;22.494;2023-02-27T04:45:05;2.10;;;0.95;;
75649;SDS011;64245;51.282;22.494;2023-02-27T04:47:35;3.72;;;1.10;;
75649;SDS011;64245;51.282;22.494;2023-02-27T04:50:12;2.58;;;1.00;;
75649;SDS011;64245;51.282;22.494;2023-02-27T04:52:46;4.40;;;1.48;;
75649;SDS011;64245;51.282;22.494;2023-02-27T04:55:25;1.73;;;1.00;;
75649;SDS011;64245;51.282;22.494;2023-02-27T04:58:07;2.85;;;1.15;;
75649;SDS011;64245;51.282;22.494;2023-02-27T05:00:36;4.68;;;1.13;;
75649;SDS011;64245;51.282;22.494;2023-02-27T05:03:14;5.88;;;1.35;;
75649;SDS011;64245;51.282;22.494;2023-02-27T05:05:46;3.38;;;1.52;;
75649;SDS011;64245;51.282;22.494;2023-02-27T05:08:27;4.55;;;1.48;;
75649;SDS011;64245;51.282;22.494;2023-02-27T05:11:01;2.67;;;1.13;;
75649;SDS011;64245;51.282;22.494;2023-02-27T05:13:38;2.88;;;1.30;;
75649;SDS011;64245;51.282;22.494;2023-02-27T05:16:20;5.28;;;1.30;;
75649;SDS011;64245;51.282;22.494;2023-02-27T05:18:51;4.05;;;1.85;;
75649;SDS011;64245;51.282;22.494;2023-02-27T05:24:05;5.22;;;2.00;;
75649;SDS011;64245;51.282;22.494;2023-02-27T05:26:53;8.30;;;1.80;;
75649;SDS011;64245;51.282;22.494;2023-02-27T05:32:02;15.52;;;6.70;;
75649;SDS011;64245;51.282;22.494;2023-02-27T05:34:56;38.88;;;13.90;;
75649;SDS011;64245;51.282;22.494;2023-02-27T05:37:27;35.70;;;13.15;;
75649;SDS011;64245;51.282;22.494;2023-02-27T05:40:02;29.05;;;11.30;;
75649;SDS011;64245;51.282;22.494;2023-02-27T05:42:37;17.42;;;7.07;;
75649;SDS011;64245;51.282;22.494;2023-02-27T05:45:08;7.03;;;2.75;;
75649;SDS011;64245;51.282;22.494;2023-02-27T05:47:40;6.65;;;2.20;;
75649;SDS011;64245;51.282;22.494;2023-02-27T05:50:12;5.72;;;2.78;;
75649;SDS011;64245;51.282;22.494;2023-02-27T05:52:41;5.05;;;2.33;;
75649;SDS011;64245;51.282;22.494;2023-02-27T05:55:13;5.72;;;2.45;;
75649;SDS011;64245;51.282;22.494;2023-02-27T05:57:44;4.80;;;2.08;;
75649;SDS011;64245;51.282;22.494;2023-02-27T06:00:16;4.95;;;2.00;;
75649;SDS011;64245;51.282;22.494;2023-02-27T06:02:47;3.22;;;1.50;;
75649;SDS011;64245;51.282;22.494;2023-02-27T06:05:14;4.47;;;2.35;;
75649;SDS011;64245;51.282;22.494;2023-02-27T06:07:41;7.30;;;3.22;;
75649;SDS011;64245;51.282;22.494;2023-02-27T06:10:10;6.47;;;3.22;;
75649;SDS011;64245;51.282;22.494;2023-02-27T06:12:38;8.38;;;3.22;;
75649;SDS011;64245;51.282;22.494;2023-02-27T06:15:04;6.90;;;3.40;;
75649;SDS011;64245;51.282;22.494;2023-02-27T06:17:30;5.30;;;2.78;;
75649;SDS011;64245;51.282;22.494;2023-02-27T06:19:55;9.20;;;3.42;;
75649;SDS011;64245;51.282;22.494;2023-02-27T06:22:21;8.05;;;2.80;;
75649;SDS011;64245;51.282;22.494;2023-02-27T06:24:47;9.02;;;3.65;;
75649;SDS011;64245;51.282;22.494;2023-02-27T06:27:12;5.97;;;2.90;;
75649;SDS011;64245;51.282;22.494;2023-02-27T06:29:38;6.20;;;3.15;;
75649;SDS011;64245;51.282;22.494;2023-02-27T06:32:03;9.10;;;3.47;;
75649;SDS011;64245;51.282;22.494;2023-02-27T06:34:29;6.80;;;3.00;;
75649;SDS011;64245;51.282;22.494;2023-02-27T06:36:54;8.70;;;3.45;;
75649;SDS011;64245;51.282;22.494;2023-02-27T06:39:20;9.05;;;3.08;;
75649;SDS011;64245;51.282;22.494;2023-02-27T06:41:46;6.90;;;2.92;;
75649;SDS011;64245;51.282;22.494;2023-02-27T06:44:12;7.95;;;2.83;;
75649;SDS011;64245;51.282;22.494;2023-02-27T06:46:38;8.48;;;3.20;;
75649;SDS011;64245;51.282;22.494;2023-02-27T06:49:03;5.93;;;2.95;;
75649;SDS011;64245;51.282;22.494;2023-02-27T06:51:29;6.68;;;3.35;;
75649;SDS011;64245;51.282;22.494;2023-02-27T06:53:55;10.98;;;3.60;;
75649;SDS011;64245;51.282;22.494;2023-02-27T06:56:21;6.78;;;2.88;;
75649;SDS011;64245;51.282;22.494;2023-02-27T06:58:47;5.55;;;2.42;;
75649;SDS011;64245;51.282;22.494;2023-02-27T07:01:12;8.63;;;2.97;;
75649;SDS011;64245;51.282;22.494;2023-02-27T07:03:38;8.25;;;3.03;;
75649;SDS011;64245;51.282;22.494;2023-02-27T07:06:04;5.60;;;2.17;;
75649;SDS011;64245;51.282;22.494;2023-02-27T07:08:30;4.93;;;2.00;;
75649;SDS011;64245;51.282;22.494;2023-02-27T07:10:55;7.05;;;2.33;;
75649;SDS011;64245;51.282;22.494;2023-02-27T07:13:21;4.68;;;2.33;;
75649;SDS011;64245;51.282;22.494;2023-02-27T07:15:47;6.07;;;2.30;;
75649;SDS011;64245;51.282;22.494;2023-02-27T07:18:14;5.68;;;2.65;;
75649;SDS011;64245;51.282;22.494;2023-02-27T07:20:40;5.03;;;1.95;;
75649;SDS011;64245;51.282;22.494;2023-02-27T07:23:05;4.57;;;1.85;;
75649;SDS011;64245;51.282;22.494;2023-02-27T07:25:31;4.45;;;1.90;;
75649;SDS011;64245;51.282;22.494;2023-02-27T07:27:57;3.92;;;1.85;;
75649;SDS011;64245;51.282;22.494;2023-02-27T07:30:22;7.60;;;2.28;;
75649;SDS011;64245;51.282;22.494;2023-02-27T07:32:48;3.30;;;1.98;;
75649;SDS011;64245;51.282;22.494;2023-02-27T07:35:14;3.42;;;1.58;;
75649;SDS011;64245;51.282;22.494;2023-02-27T07:37:40;3.92;;;2.00;;
75649;SDS011;64245;51.282;22.494;2023-02-27T07:40:06;3.95;;;2.20;;
75649;SDS011;64245;51.282;22.494;2023-02-27T07:42:33;4.13;;;1.65;;
75649;SDS011;64245;51.282;22.494;2023-02-27T07:44:59;2.25;;;1.40;;
75649;SDS011;64245;51.282;22.494;2023-02-27T07:47:25;2.92;;;1.25;;
75649;SDS011;64245;51.282;22.494;2023-02-27T07:49:51;4.22;;;1.75;;
75649;SDS011;64245;51.282;22.494;2023-02-27T07:52:17;3.83;;;1.40;;
75649;SDS011;64245;51.282;22.494;2023-02-27T07:54:42;2.45;;;1.77;;
75649;SDS011;64245;51.282;22.494;2023-02-27T07:57:08;3.88;;;1.30;;
75649;SDS011;64245;51.282;22.494;2023-02-27T07:59:33;4.90;;;1.75;;
75649;SDS011;64245;51.282;22.494;2023-02-27T08:01:59;4.95;;;1.63;;
75649;SDS011;64245;51.282;22.494;2023-02-27T08:04:24;5.22;;;2.40;;
75649;SDS011;64245;51.282;22.494;2023-02-27T08:06:50;2.65;;;1.73;;
75649;SDS011;64245;51.282;22.494;2023-02-27T08:09:16;6.15;;;2.53;;
75649;SDS011;64245;51.282;22.494;2023-02-27T08:11:42;5.88;;;1.70;;
75649;SDS011;64245;51.282;22.494;2023-02-27T08:14:07;2.83;;;1.23;;
75649;SDS011;64245;51.282;22.494;2023-02-27T08:16:33;3.28;;;1.20;;
75649;SDS011;64245;51.282;22.494;2023-02-27T08:18:59;2.05;;;1.20;;
75649;SDS011;64245;51.282;22.494;2023-02-27T08:21:25;4.25;;;1.88;;
75649;SDS011;64245;51.282;22.494;2023-02-27T08:23:51;5.47;;;1.30;;
75649;SDS011;64245;51.282;22.494;2023-02-27T08:26:16;5.10;;;1.13;;
75649;SDS011;64245;51.282;22.494;2023-02-27T08:28:42;2.70;;;0.77;;
75649;SDS011;64245;51.282;22.494;2023-02-27T08:31:08;2.58;;;1.27;;
75649;SDS011;64245;51.282;22.494;2023-02-27T08:33:34;2.95;;;1.20;;
75649;SDS011;64245;51.282;22.494;2023-02-27T08:35:59;3.22;;;1.33;;
75649;SDS011;64245;51.282;22.494;2023-02-27T08:45:47;1.42;;;1.00;;
75649;SDS011;64245;51.282;22.494;2023-02-27T08:48:14;3.90;;;1.20;;
75649;SDS011;64245;51.282;22.494;2023-02-27T08:50:41;3.60;;;1.17;;
75649;SDS011;64245;51.282;22.494;2023-02-27T08:53:07;3.45;;;1.30;;
75649;SDS011;64245;51.282;22.494;2023-02-27T08:55:33;3.88;;;1.20;;
75649;SDS011;64245;51.282;22.494;2023-02-27T08:57:59;2.72;;;1.35;;
75649;SDS011;64245;51.282;22.494;2023-02-27T09:00:24;2.35;;;1.20;;
75649;SDS011;64245;51.282;22.494;2023-02-27T09:02:51;2.95;;;1.30;;
75649;SDS011;64245;51.282;22.494;2023-02-27T09:05:17;2.22;;;1.20;;
75649;SDS011;64245;51.282;22.494;2023-02-27T09:07:44;2.63;;;1.40;;
75649;SDS011;64245;51.282;22.494;2023-02-27T09:10:10;3.50;;;1.35;;
75649;SDS011;64245;51.282;22.494;2023-02-27T09:12:37;3.00;;;1.13;;
75649;SDS011;64245;51.282;22.494;2023-02-27T09:15:04;3.22;;;1.63;;
75649;SDS011;64245;51.282;22.494;2023-02-27T09:17:31;4.18;;;1.48;;
75649;SDS011;64245;51.282;22.494;2023-02-27T09:19:56;3.88;;;1.30;;
75649;SDS011;64245;51.282;22.494;2023-02-27T09:22:22;2.33;;;1.52;;
75649;SDS011;64245;51.282;22.494;2023-02-27T09:24:48;4.07;;;1.45;;
75649;SDS011;64245;51.282;22.494;2023-02-27T09:27:14;2.72;;;1.40;;
75649;SDS011;64245;51.282;22.494;2023-02-27T09:29:39;2.92;;;1.58;;
75649;SDS011;64245;51.282;22.494;2023-02-27T09:32:05;3.22;;;1.40;;
75649;SDS011;64245;51.282;22.494;2023-02-27T09:34:32;2.03;;;0.77;;
75649;SDS011;64245;51.282;22.494;2023-02-27T09:36:58;3.20;;;1.48;;
75649;SDS011;64245;51.282;22.494;2023-02-27T09:39:24;3.03;;;1.15;;
75649;SDS011;64245;51.282;22.494;2023-02-27T09:41:58;2.55;;;0.70;;
75649;SDS011;64245;51.282;22.494;2023-02-27T09:44:43;1.55;;;1.00;;
75649;SDS011;64245;51.282;22.494;2023-02-27T09:47:29;2.38;;;0.68;;
75649;SDS011;64245;51.282;22.494;2023-02-27T09:50:10;1.98;;;0.95;;
75649;SDS011;64245;51.282;22.494;2023-02-27T09:52:53;1.73;;;0.88;;
75649;SDS011;64245;51.282;22.494;2023-02-27T09:55:19;2.28;;;0.90;;
75649;SDS011;64245;51.282;22.494;2023-02-27T09:57:51;2.72;;;1.10;;
75649;SDS011;64245;51.282;22.494;2023-02-27T10:00:26;3.75;;;1.10;;
75649;SDS011;64245;51.282;22.494;2023-02-27T10:05:49;2.05;;;0.90;;
75649;SDS011;64245;51.282;22.494;2023-02-27T10:08:45;1.27;;;0.90;;
75649;SDS011;64245;51.282;22.494;2023-02-27T10:11:30;3.75;;;1.10;;
75649;SDS011;64245;51.282;22.494;2023-02-27T10:14:08;2.03;;;1.13;;
75649;SDS011;64245;51.282;22.494;2023-02-27T10:16:46;3.92;;;1.00;;
75649;SDS011;64245;51.282;22.494;2023-02-27T10:19:16;1.95;;;1.00;;
75649;SDS011;64245;51.282;22.494;2023-02-27T10:21:51;4.25;;;1.65;;
75649;SDS011;64245;51.282;22.494;2023-02-27T10:24:22;4.53;;;2.30;;
75649;SDS011;64245;51.282;22.494;2023-02-27T10:26:56;3.42;;;1.33;;
75649;SDS011;64245;51.282;22.494;2023-02-27T10:29:26;3.38;;;1.55;;
75649;SDS011;64245;51.282;22.494;2023-02-27T10:31:57;3.53;;;1.42;;
75649;SDS011;64245;51.282;22.494;2023-02-27T10:34:40;2.10;;;1.50;;
75649;SDS011;64245;51.282;22.494;2023-02-27T10:37:09;2.72;;;1.40;;
75649;SDS011;64245;51.282;22.494;2023-02-27T10:40:00;3.10;;;1.60;;
75649;SDS011;64245;51.282;22.494;2023-02-27T10:42:29;1.95;;;1.17;;
75649;SDS011;64245;51.282;22.494;2023-02-27T10:45:03;2.85;;;1.38;;
75649;SDS011;64245;51.282;22.494;2023-02-27T10:47:29;2.97;;;1.17;;
75649;SDS011;64245;51.282;22.494;2023-02-27T10:49:55;3.45;;;1.73;;
75649;SDS011;64245;51.282;22.494;2023-02-27T10:52:24;4.93;;;1.52;;
75649;SDS011;64245;51.282;22.494;2023-02-27T10:54:49;2.47;;;1.40;;
75649;SDS011;64245;51.282;22.494;2023-02-27T10:57:19;2.92;;;1.42;;
75649;SDS011;64245;51.282;22.494;2023-02-27T10:59:55;3.08;;;2.05;;
75649;SDS011;64245;51.282;22.494;2023-02-27T11:02:35;1.55;;;1.15;;
75649;SDS011;64245;51.282;22.494;2023-02-27T11:05:03;2.50;;;1.70;;
75649;SDS011;64245;51.282;22.494;2023-02-27T11:12:38;1.98;;;1.08;;
75649;SDS011;64245;51.282;22.494;2023-02-27T11:17:39;3.33;;;1.38;;
75649;SDS011;64245;51.282;22.494;2023-02-27T11:20:05;2.58;;;1.60;;
75649;SDS011;64245;51.282;22.494;2023-02-27T11:25:31;1.58;;;1.05;;
75649;SDS011;64245;51.282;22.494;2023-02-27T11:30:55;2.47;;;1.50;;
75649;SDS011;64245;51.282;22.494;2023-02-27T11:33:21;3.42;;;1.52;;
75649;SDS011;64245;51.282;22.494;2023-02-27T11:35:49;2.63;;;1.45;;
75649;SDS011;64245;51.282;22.494;2023-02-27T11:38:23;2.10;;;1.30;;
75649;SDS011;64245;51.282;22.494;2023-02-27T11:40:53;3.53;;;1.50;;
75649;SDS011;64245;51.282;22.494;2023-02-27T11:43:25;1.95;;;1.23;;
75649;SDS011;64245;51.282;22.494;2023-02-27T11:45:57;2.65;;;1.45;;
75649;SDS011;64245;51.282;22.494;2023-02-27T11:48:29;5.10;;;1.65;;
75649;SDS011;64245;51.282;22.494;2023-02-27T11:51:17;3.47;;;1.60;;
75649;SDS011;64245;51.282;22.494;2023-02-27T11:57:10;2.20;;;1.48;;
75649;SDS011;64245;51.282;22.494;2023-02-27T12:02:29;2.67;;;1.52;;
75649;SDS011;64245;51.282;22.494;2023-02-27T12:08:01;2.03;;;1.20;;
75649;SDS011;64245;51.282;22.494;2023-02-27T12:11:05;3.03;;;1.63;;
75649;SDS011;64245;51.282;22.494;2023-02-27T12:13:26;3.00;;;1.48;;
75649;SDS011;64245;51.282;22.494;2023-02-27T12:15:59;2.85;;;1.40;;
75649;SDS011;64245;51.282;22.494;2023-02-27T12:21:12;3.85;;;1.50;;
75649;SDS011;64245;51.282;22.494;2023-02-27T12:23:45;4.55;;;1.98;;
75649;SDS011;64245;51.282;22.494;2023-02-27T12:26:20;5.00;;;2.08;;
75649;SDS011;64245;51.282;22.494;2023-02-27T12:29:01;3.65;;;1.70;;
75649;SDS011;64245;51.282;22.494;2023-02-27T12:31:35;4.68;;;1.65;;
75649;SDS011;64245;51.282;22.494;2023-02-27T12:36:38;3.53;;;1.70;;
75649;SDS011;64245;51.282;22.494;2023-02-27T12:39:04;4.60;;;1.70;;
75649;SDS011;64245;51.282;22.494;2023-02-27T12:47:09;5.30;;;2.92;;
75649;SDS011;64245;51.282;22.494;2023-02-27T12:49:44;3.05;;;1.73;;
75649;SDS011;64245;51.282;22.494;2023-02-27T12:52:21;4.45;;;1.98;;
75649;SDS011;64245;51.282;22.494;2023-02-27T12:57:41;1.60;;;1.50;;
75649;SDS011;64245;51.282;22.494;2023-02-27T13:00:24;2.58;;;1.67;;
75649;SDS011;64245;51.282;22.494;2023-02-27T13:02:55;3.22;;;1.67;;
75649;SDS011;64245;51.282;22.494;2023-02-27T13:08:07;3.85;;;1.67;;
75649;SDS011;64245;51.282;22.494;2023-02-27T13:10:42;2.72;;;1.65;;
75649;SDS011;64245;51.282;22.494;2023-02-27T13:13:38;2.58;;;1.40;;
75649;SDS011;64245;51.282;22.494;2023-02-27T13:16:14;3.53;;;1.98;;
75649;SDS011;64245;51.282;22.494;2023-02-27T13:18:46;3.60;;;1.85;;
75649;SDS011;64245;51.282;22.494;2023-02-27T13:21:20;4.90;;;1.90;;
75649;SDS011;64245;51.282;22.494;2023-02-27T13:26:44;3.72;;;2.10;;
75649;SDS011;64245;51.282;22.494;2023-02-27T13:29:15;3.80;;;1.88;;
75649;SDS011;64245;51.282;22.494;2023-02-27T13:31:54;7.05;;;4.43;;
75649;SDS011;64245;51.282;22.494;2023-02-27T13:34:38;5.82;;;3.03;;
75649;SDS011;64245;51.282;22.494;2023-02-27T13:37:11;2.15;;;1.38;;
75649;SDS011;64245;51.282;22.494;2023-02-27T13:39:38;3.13;;;2.00;;
75649;SDS011;64245;51.282;22.494;2023-02-27T13:44:51;5.47;;;2.58;;
75649;SDS011;64245;51.282;22.494;2023-02-27T13:49:54;2.25;;;1.52;;
75649;SDS011;64245;51.282;22.494;2023-02-27T13:52:32;4.13;;;2.30;;
75649;SDS011;64245;51.282;22.494;2023-02-27T13:55:00;7.95;;;2.55;;
75649;SDS011;64245;51.282;22.494;2023-02-27T13:57:32;4.07;;;1.95;;
75649;SDS011;64245;51.282;22.494;2023-02-27T14:00:06;2.65;;;1.48;;
75649;SDS011;64245;51.282;22.494;2023-02-27T14:02:54;5.18;;;1.48;;
75649;SDS011;64245;51.282;22.494;2023-02-27T14:05:35;2.40;;;1.20;;
75649;SDS011;64245;51.282;22.494;2023-02-27T14:08:47;2.40;;;1.38;;
75649;SDS011;64245;51.282;22.494;2023-02-27T14:11:08;4.65;;;1.60;;
75649;SDS011;64245;51.282;22.494;2023-02-27T14:16:11;3.10;;;1.73;;
75649;SDS011;64245;51.282;22.494;2023-02-27T14:18:58;3.33;;;1.67;;
75649;SDS011;64245;51.282;22.494;2023-02-27T14:24:38;2.70;;;1.33;;
75649;SDS011;64245;51.282;22.494;2023-02-27T14:27:14;3.40;;;1.80;;
75649;SDS011;64245;51.282;22.494;2023-02-27T14:29:46;2.28;;;1.20;;
75649;SDS011;64245;51.282;22.494;2023-02-27T14:32:31;4.40;;;1.90;;
75649;SDS011;64245;51.282;22.494;2023-02-27T14:34:59;5.63;;;1.70;;
75649;SDS011;64245;51.282;22.494;2023-02-27T14:37:29;4.32;;;1.80;;
75649;SDS011;64245;51.282;22.494;2023-02-27T14:39:56;2.72;;;1.58;;
75649;SDS011;64245;51.282;22.494;2023-02-27T14:45:21;3.83;;;1.42;;
75649;SDS011;64245;51.282;22.494;2023-02-27T14:47:48;2.33;;;1.40;;
75649;SDS011;64245;51.282;22.494;2023-02-27T14:50:34;3.40;;;1.40;;
75649;SDS011;64245;51.282;22.494;2023-02-27T14:53:03;2.55;;;1.40;;
75649;SDS011;64245;51.282;22.494;2023-02-27T14:55:31;2.83;;;1.45;;
75649;SDS011;64245;51.282;22.494;2023-02-27T15:00:40;2.58;;;1.38;;
75649;SDS011;64245;51.282;22.494;2023-02-27T15:03:15;2.63;;;1.30;;
75649;SDS011;64245;51.282;22.494;2023-02-27T15:05:59;1.88;;;1.45;;
75649;SDS011;64245;51.282;22.494;2023-02-27T15:08:29;3.67;;;1.77;;
75649;SDS011;64245;51.282;22.494;2023-02-27T15:10:58;3.35;;;2.25;;
75649;SDS011;64245;51.282;22.494;2023-02-27T15:13:26;4.57;;;1.80;;
75649;SDS011;64245;51.282;22.494;2023-02-27T15:18:48;4.55;;;2.25;;
75649;SDS011;64245;51.282;22.494;2023-02-27T15:21:16;5.13;;;1.85;;
75649;SDS011;64245;51.282;22.494;2023-02-27T15:23:52;3.90;;;1.98;;
75649;SDS011;64245;51.282;22.494;2023-02-27T15:26:22;3.35;;;1.67;;
75649;SDS011;64245;51.282;22.494;2023-02-27T15:28:48;9.30;;;3.60;;
75649;SDS011;64245;51.282;22.494;2023-02-27T15:31:21;10.50;;;4.13;;
75649;SDS011;64245;51.282;22.494;2023-02-27T15:33:50;3.70;;;1.90;;
75649;SDS011;64245;51.282;22.494;2023-02-27T15:36:18;6.45;;;1.50;;
75649;SDS011;64245;51.282;22.494;2023-02-27T15:38:45;3.60;;;1.92;;
75649;SDS011;64245;51.282;22.494;2023-02-27T15:41:26;3.58;;;1.70;;
75649;SDS011;64245;51.282;22.494;2023-02-27T15:43:52;2.95;;;1.88;;
75649;SDS011;64245;51.282;22.494;2023-02-27T15:46:18;4.47;;;2.28;;
75649;SDS011;64245;51.282;22.494;2023-02-27T15:48:44;4.70;;;2.05;;
75649;SDS011;64245;51.282;22.494;2023-02-27T15:51:10;5.72;;;2.35;;
75649;SDS011;64245;51.282;22.494;2023-02-27T15:53:36;9.13;;;3.55;;
75649;SDS011;64245;51.282;22.494;2023-02-27T15:56:06;5.43;;;2.90;;
75649;SDS011;64245;51.282;22.494;2023-02-27T16:01:09;6.82;;;3.00;;
75649;SDS011;64245;51.282;22.494;2023-02-27T16:03:41;6.72;;;3.47;;
75649;SDS011;64245;51.282;22.494;2023-02-27T16:06:10;5.30;;;2.60;;
75649;SDS011;64245;51.282;22.494;2023-02-27T16:08:42;4.70;;;2.42;;
75649;SDS011;64245;51.282;22.494;2023-02-27T16:11:17;4.65;;;2.45;;
75649;SDS011;64245;51.282;22.494;2023-02-27T16:13:50;5.40;;;2.92;;
75649;SDS011;64245;51.282;22.494;2023-02-27T16:16:21;5.93;;;3.03;;
75649;SDS011;64245;51.282;22.494;2023-02-27T16:18:49;8.32;;;3.63;;
75649;SDS011;64245;51.282;22.494;2023-02-27T16:21:21;7.65;;;3.38;;
75649;SDS011;64245;51.282;22.494;2023-02-27T16:23:48;5.72;;;3.97;;
75649;SDS011;64245;51.282;22.494;2023-02-27T16:26:30;6.75;;;3.08;;
75649;SDS011;64245;51.282;22.494;2023-02-27T16:29:04;7.38;;;3.10;;
75649;SDS011;64245;51.282;22.494;2023-02-27T16:31:45;9.55;;;4.25;;
75649;SDS011;64245;51.282;22.494;2023-02-27T16:34:22;10.23;;;5.03;;
75649;SDS011;64245;51.282;22.494;2023-02-27T16:36:55;7.13;;;3.28;;
75649;SDS011;64245;51.282;22.494;2023-02-27T16:39:23;5.88;;;3.28;;
75649;SDS011;64245;51.282;22.494;2023-02-27T16:41:53;8.95;;;3.53;;
75649;SDS011;64245;51.282;22.494;2023-02-27T16:44:19;13.23;;;4.10;;
75649;SDS011;64245;51.282;22.494;2023-02-27T16:46:49;10.73;;;5.13;;
75649;SDS011;64245;51.282;22.494;2023-02-27T16:49:25;16.65;;;5.80;;
75649;SDS011;64245;51.282;22.494;2023-02-27T16:51:54;11.45;;;4.82;;
75649;SDS011;64245;51.282;22.494;2023-02-27T16:54:20;10.70;;;4.55;;
75649;SDS011;64245;51.282;22.494;2023-02-27T16:56:47;12.27;;;4.97;;
75649;SDS011;64245;51.282;22.494;2023-02-27T16:59:33;25.83;;;7.15;;
75649;SDS011;64245;51.282;22.494;2023-02-27T17:02:02;22.48;;;7.05;;
75649;SDS011;64245;51.282;22.494;2023-02-27T17:04:29;19.25;;;6.68;;
75649;SDS011;64245;51.282;22.494;2023-02-27T17:06:57;11.70;;;4.82;;
75649;SDS011;64245;51.282;22.494;2023-02-27T17:09:23;11.20;;;4.10;;
75649;SDS011;64245;51.282;22.494;2023-02-27T17:11:52;9.27;;;3.42;;